Str. Kaye Barker — WCF3012 — position and weather

sailwx.info

Track history (hours):
 
Tides and Currents Weather Stations Pressure Air Temp Water Temp Dewpoint Dewpoint Depression Visibility Wind Speed Wind Dir Waves Ship Positions

Str. Kaye Barker

Owner: THE INTERLAKE STEAMSHIP COMPANY, Middleburg Heights, OH. More information available from US FCC via Universal Licensing System and Coast Guard Vessel Documentation Center.

Last reported at 2017-Sep-25 00:00 UTC. Time now 2017-Sep-25 00:34 UTC.
Position N 45°12' W 087°24'.

Length 223 m; draft 8.3 m.

Type: Cargo ship. MMSI: 366904910.

Wind from 180 at 16 knots

Barometer 1014.3 mb
Air temperature 23.9 ° C
Water temperature 18.7 ° C

Date/timePositionNaut miles runAvg speedWind from/ knotsBaromVisibWave heightAir tempDewpointWater temp
2017-Sep-25 00:00N 45°12' W 087°24'1010.4 180 / 161014.3 23.9 18.7
2017-Sep-24 23:00N 45°18' W 087°12'1414.0 180 / 181014.3 25.5 18.1
2017-Sep-24 22:00N 45°24' W 086°54'1414.0 190 / 191014.3 24.1 17.9
2017-Sep-24 21:00N 45°30' W 086°36'811.1 190 / 171015.0 21.0 17.2
2017-Sep-24 20:15N 45°33' W 086°25'312.5
2017-Sep-24 20:00N 45°35' W 086°21'2215.3
2017-Sep-24 20:00N 45°36' W 086°24'715.4 180 / 111016.0 21.0 17.4
2017-Sep-24 19:30N 45°38' W 086°14'713.1
2017-Sep-24 19:00N 45°42' W 086°06'149.5 200 / 141016.4 21.1 17.3
2017-Sep-24 18:58N 45°41' W 086°05'612.5
2017-Sep-24 18:30N 45°44' W 085°58'612.7
2017-Sep-24 18:00N 45°47' W 085°50'3186.4
2017-Sep-24 18:00N 45°48' W 085°54'917.4 210 / 251017.4 21.6 16.8
2017-Sep-24 17:30N 45°50' W 085°42'612.6
2017-Sep-24 17:00N 45°53' W 085°34'192.2
2017-Sep-24 17:00N 45°54' W 085°36'715.3 210 / 91017.7 23.3 16.8
2017-Sep-24 16:30N 45°53' W 085°25'612.1
2017-Sep-24 16:00N 45°53' W 085°17'2108.7
2017-Sep-24 16:00N 45°54' W 085°18'815.5 190 / 141017.7 21.3 17.1
2017-Sep-24 15:30N 45°52' W 085°08'612.8
2017-Sep-24 15:00N 45°51' W 084°59'3176.6
2017-Sep-24 15:00N 45°48' W 085°00'715.4 200 / 31018.4 22.4 17.1
2017-Sep-24 14:30N 45°50' W 084°50'712.9
2017-Sep-24 14:00N 45°48' W 084°41'1247.3
2017-Sep-24 14:00N 45°48' W 084°42'714.8 180 / 51018.4 22.6 17.0
2017-Sep-24 13:30N 45°45' W 084°33'612.5
2017-Sep-24 13:00N 45°42' W 084°25'153.5
2017-Sep-24 13:00N 45°42' W 084°24'511.1 220 / 71018.4 20.3 16.7
2017-Sep-24 12:30N 45°41' W 084°16'612.2
2017-Sep-24 12:00N 45°39' W 084°08'4294.2
2017-Sep-24 12:00N 45°42' W 084°12'1020.7 180 / 41018.4 21.4 17.1
2017-Sep-24 11:30N 45°37' W 083°60'612.9
2017-Sep-24 11:00N 45°34' W 083°52'3233.5
2017-Sep-24 11:00N 45°36' W 083°54'918.5 180 / 31018.8 21.6 17.3
2017-Sep-24 10:30N 45°31' W 083°44'612.7
2017-Sep-24 10:00N 45°28' W 083°35'2222.8
2017-Sep-24 10:00N 45°30' W 083°36'816.1 230 / 221018.4 21.5 17.0
2017-Sep-24 09:30N 45°25' W 083°27'3 5.0
2017-Sep-24 09:00N 45°24' W 083°24'1514.7 210 / 91018.4 22.9 17.1
2017-Sep-24 08:00N 45°12' W 083°12'1312.7 210 / 91018.4 22.5 17.1
2017-Sep-24 07:00N 45°00' W 083°06'1312.7 240 / 21018.4 22.5 17.4
2017-Sep-24 06:00N 44°48' W 083°00'1312.7 220 / 121018.4 22.3 17.4
2017-Sep-24 05:00N 44°36' W 082°54'1312.7 200 / 131018.1 22.3 17.3
2017-Sep-24 04:00N 44°24' W 082°48'2512.7 190 / 101018.4 22.8 17.8
2017-Sep-24 02:00N 44°00' W 082°36'1312.8 200 / 141018.4 23.6 18.2
2017-Sep-24 01:00N 43°48' W 082°30'1818.0 190 / 81018.4 23.2 18.5
2017-Sep-24 00:00N 43°30' W 082°30'1312.8 170 / 71018.4 24.5 18.9
2017-Sep-23 23:00N 43°18' W 082°24'1212.0 140 / 51018.1 24.1 18.6
2017-Sep-23 22:00N 43°06' W 082°24'1212.0 080 / 111017.7 28.8 18.5
2017-Sep-23 21:00N 42°54' W 082°24'7 7.4 310 / 41018.1 31.7 18.1
2017-Sep-23 20:00N 42°48' W 082°30'1212.0 290 / 41018.8 32.1 18.1
2017-Sep-23 19:00N 42°36' W 082°30'1110.7 210 / 51019.8 29.6 18.2
2017-Sep-23 18:00N 42°30' W 082°42'1110.7 130 / 141019.9 24.3 18.4
2017-Sep-23 17:00N 42°24' W 082°54'1110.7 090 / 71020.3 23.0 19.4
2017-Sep-23 16:00N 42°18' W 083°06'6 6.0 040 / 31019.9 28.2 19.5
2017-Sep-23 15:00N 42°12' W 083°06'1212.0 090 / 11019.9 23.9 19.7
2017-Sep-23 14:00N 42°00' W 083°06'7 7.5 130 / 11019.8 22.0 19.7
2017-Sep-23 13:00N 41°54' W 083°00'4 2.2 030 / 31019.8 22.1 19.8
2017-Sep-23 11:00N 41°54' W 083°06'1110.8 190 / 31018.8 22.3 20.2
2017-Sep-23 10:00N 41°48' W 083°18'1110.8 190 / 71018.1 22.4 20.2
2017-Sep-23 09:00N 41°42' W 083°30'0 0.0 020 / 11017.8 21.5 21.1
2017-Sep-23 08:00N 41°42' W 083°30'0 0.0 260 / 11017.4 21.6 21.1
2017-Sep-23 07:00N 41°42' W 083°30'0 0.0 040 / 21017.8 22.3 21.2
2017-Sep-23 06:00N 41°42' W 083°30'0 0.0 060 / 11017.4 22.4 21.3
2017-Sep-23 05:00N 41°42' W 083°30'0 0.0 030 / 21017.4 22.1 21.1
2017-Sep-23 04:00N 41°42' W 083°30'0 0.0 140 / 31017.4 22.3 21.0
2017-Sep-23 03:00N 41°42' W 083°30'0 0.0 130 / 41017.4 22.5 21.6
2017-Sep-23 02:00N 41°42' W 083°30'0 0.0 120 / 51017.4 23.2 21.6
2017-Sep-23 01:00N 41°42' W 083°30'0 0.0 110 / 51017.4 24.3 21.5
2017-Sep-23 00:00N 41°42' W 083°30'0 0.0 070 / 31017.4 24.2 21.6
2017-Sep-22 23:00N 41°42' W 083°30'0 0.0 060 / 51017.4 25.4 21.3
2017-Sep-22 22:00N 41°42' W 083°30'0 0.0 070 / 51017.4 26.8 21.2
2017-Sep-22 21:00N 41°42' W 083°30'4 4.5 060 / 51017.4 27.4 21.3
2017-Sep-22 20:00N 41°42' W 083°24'7 7.5 080 / 81017.8 24.4 21.2
2017-Sep-22 19:00N 41°48' W 083°18'1110.8 070 / 51018.1 24.2 19.8
2017-Sep-22 18:00N 41°54' W 083°06'1212.0 120 / 171018.5 23.2 19.8
2017-Sep-22 17:00N 42°06' W 083°06'1212.0 200 / 81018.9 24.8 19.5
2017-Sep-22 16:00N 42°18' W 083°06'4 4.4 140 / 31019.2 27.5 22.5
2017-Sep-22 15:00N 42°18' W 083°12'0 0.0 280 / 31019.2 26.8 25.2
2017-Sep-22 14:00N 42°18' W 083°12'0 0.0 160 / 41019.2 24.8 25.4
2017-Sep-22 13:00N 42°18' W 083°12'0 0.0 120 / 21019.2 23.7 25.3
2017-Sep-22 12:00N 42°18' W 083°12'0 0.0 120 / 31018.9 22.2 24.6
2017-Sep-22 11:00N 42°18' W 083°12'0 0.0 120 / 31018.9 21.8 24.4
2017-Sep-22 10:00N 42°18' W 083°12'0 0.0 160 / 11018.9 22.1 23.7
2017-Sep-22 09:00N 42°18' W 083°12'0 0.0 180 / 11018.9 22.5 23.1
2017-Sep-22 08:00N 42°18' W 083°12'4 4.4 110 / 21018.6 22.2 24.3
2017-Sep-22 07:00N 42°18' W 083°06'0 0.0 010 / 21018.9 22.7 21.4
2017-Sep-22 06:00N 42°18' W 083°06'4 4.4 040 / 21018.6 22.3 19.9
2017-Sep-22 05:00N 42°18' W 083°00'7 7.5 140 / 41018.2 23.4 19.2
2017-Sep-22 04:00N 42°24' W 082°54'1110.7 170 / 101017.9 22.2 18.9
2017-Sep-22 03:00N 42°30' W 082°42'1110.7 120 / 121018.2 22.5 17.9
2017-Sep-22 02:00N 42°36' W 082°30'1212.0 120 / 31018.4 22.2 18.0
2017-Sep-22 01:00N 42°48' W 082°30'7 7.4 150 / 61018.1 23.7 17.9
2017-Sep-22 00:00N 42°54' W 082°24'1212.0 150 / 101017.7 25.6 17.9
2017-Sep-21 23:00N 43°06' W 082°24'1212.0 160 / 141016.7 27.0 17.7
2017-Sep-21 22:00N 43°18' W 082°24'1212.0 140 / 141016.4 25.5 17.7
2017-Sep-21 21:00N 43°30' W 082°24'1212.0 130 / 171016.0 25.0 17.8
2017-Sep-21 20:00N 43°42' W 082°24'1212.0 140 / 181016.4 23.3 17.8
2017-Sep-21 19:00N 43°54' W 082°24'1312.8 140 / 191016.4 22.5 17.7
2017-Sep-21 18:00N 44°06' W 082°30'1312.7 150 / 141016.7 21.3 17.3
2017-Sep-21 17:00N 44°18' W 082°36'5711.3 160 / 151017.1 20.6 16.9
2017-Sep-21 12:00N 45°12' W 083°00'1514.7 160 / 161015.7 19.8 16.9
2017-Sep-21 11:00N 45°24' W 083°12'1113.0 160 / 141015.4 19.8 16.3
2017-Sep-21 10:11N 45°32' W 083°21'212.2
2017-Sep-21 10:00N 45°34' W 083°23'612.3
2017-Sep-21 09:30N 45°38' W 083°29'612.3
2017-Sep-21 09:00N 45°43' W 083°35'2110.7
2017-Sep-21 07:00N 46°00' W 083°54'1112.2 140 / 81015.0 19.8 16.4
2017-Sep-21 06:05N 46°09' W 084°03'339.5
2017-Sep-21 06:00N 46°12' W 084°06'275.7 200 / 41016.7 19.5 16.1
2017-Sep-21 05:58N 46°10' W 084°05'9 9.7
2017-Sep-21 05:00N 46°18' W 084°12'6 6.0 160 / 101014.0 19.7 15.5
2017-Sep-21 04:00N 46°24' W 084°12'7 7.3 110 / 91014.0 19.0 15.2
2017-Sep-21 03:00N 46°30' W 084°18'4 4.1 100 / 101014.0 19.2 15.3
2017-Sep-21 02:00N 46°30' W 084°24'0 0.0 100 / 71013.9 19.2 15.2
2017-Sep-21 01:00N 46°30' W 084°24'8 8.3 100 / 91013.9 19.4 15.2
2017-Sep-21 00:00N 46°30' W 084°36'1010.2 120 / 181012.2 19.7 14.9
2017-Sep-20 23:00N 46°36' W 084°48'1312.7 140 / 211011.2 20.2 15.0
2017-Sep-20 22:00N 46°48' W 084°54'1413.7 140 / 241010.5 20.0 14.2
2017-Sep-20 21:00N 46°54' W 085°12'1413.7 130 / 251009.8 20.0 14.3
2017-Sep-20 20:00N 46°48' W 085°30'1212.3 140 / 221009.8 21.1 14.6
2017-Sep-20 19:00N 46°48' W 085°48'1212.3 150 / 161010.2 20.5 14.8
2017-Sep-20 18:00N 46°48' W 086°06'1413.7 130 / 171009.8 20.1 13.9
2017-Sep-20 17:00N 46°42' W 086°24'1212.3 150 / 261009.5 18.8 14.3
2017-Sep-20 16:00N 46°42' W 086°42'1010.2 160 / 251011.2 18.2 14.6
2017-Sep-20 15:00N 46°36' W 086°54'1212.4 160 / 211011.510.8 17.3 13.9
2017-Sep-20 14:00N 46°36' W 087°12'815.8 160 / 171011.5 17.7 13.8
2017-Sep-20 13:31N 46°34' W 087°23'0 1.6
2017-Sep-20 13:30N 46°34' W 087°23'2 4.0
2017-Sep-20 13:00N 46°36' W 087°24'0 0.0 120 / 21012.5 18.1 14.6
2017-Sep-20 12:00N 46°36' W 087°24'0 0.0 040 / 31010.8 17.5 14.5
2017-Sep-20 11:00N 46°36' W 087°24'0 0.0 250 / 21011.9 17.2 14.6
2017-Sep-20 10:00N 46°36' W 087°24'0 0.0 150 / 31010.8 16.6 14.4
2017-Sep-20 09:00N 46°36' W 087°24'810.2 200 / 31011.5 16.2 14.3
2017-Sep-20 08:14N 46°35' W 087°13'1 3.2
2017-Sep-20 08:00N 46°36' W 087°12'31810.8 160 / 171011.9 15.9 13.9
2017-Sep-20 07:59N 46°36' W 087°08'10 9.9
2017-Sep-20 07:00N 46°36' W 086°54'1413.7 150 / 161012.5 15.9 14.0
2017-Sep-20 06:00N 46°42' W 086°36'1616.5 150 / 161012.9 15.9 14.3
2017-Sep-20 05:00N 46°42' W 086°12'412.4 150 / 211012.9 16.2 14.3
2017-Sep-20 04:41N 46°44' W 086°08'213.0
2017-Sep-20 04:30N 46°45' W 086°04'815.1
2017-Sep-20 04:00N 46°48' W 085°54'313.9 140 / 151014.2 15.9 14.3
2017-Sep-20 03:44N 46°46' W 085°50'1013.0
2017-Sep-20 03:00N 46°48' W 085°36'1212.3 150 / 131014.6 16.5 14.1
2017-Sep-20 02:00N 46°48' W 085°18'1212.3 120 / 201014.9 17.4 14.4
2017-Sep-20 01:00N 46°48' W 085°00'1514.6 160 / 101015.2 18.6 14.5
2017-Sep-20 00:00N 46°36' W 084°48'1010.2 150 / 91014.910.8 18.9 15.0
2017-Sep-19 23:00N 46°30' W 084°36'8 8.3 160 / 111014.9 19.7 15.1
2017-Sep-19 22:00N 46°30' W 084°24'4 4.1 140 / 71015.2 21.6 15.2
2017-Sep-19 21:00N 46°30' W 084°18'7 7.3 130 / 71015.7 21.9 15.3
2017-Sep-19 20:00N 46°24' W 084°12'7 7.3 150 / 121016.4 21.4 15.4
2017-Sep-19 19:00N 46°18' W 084°06'315.1 100 / 101016.7 21.1 15.4
2017-Sep-19 18:48N 46°15' W 084°06'3 8.7
2017-Sep-19 18:26N 46°12' W 084°07'817.2
2017-Sep-19 18:00N 46°06' W 084°00'4 6.4 100 / 91017.4 18.9 16.3
2017-Sep-19 17:25N 46°03' W 083°57'4 8.5
2017-Sep-19 17:00N 46°00' W 083°54'127.9 050 / 141017.4 18.9 16.1
2017-Sep-19 16:57N 45°59' W 083°53'612.4
2017-Sep-19 16:29N 45°53' W 083°51'611.5
2017-Sep-19 16:00N 45°48' W 083°48'270.2 070 / 101017.7 17.4 16.3
2017-Sep-19 15:58N 45°48' W 083°45'612.9
2017-Sep-19 15:30N 45°43' W 083°40'612.8
2017-Sep-19 15:00N 45°38' W 083°35'2119.3
2017-Sep-19 15:00N 45°36' W 083°36'611.8 080 / 141017.7 17.5 16.0
2017-Sep-19 14:30N 45°32' W 083°30'713.1
2017-Sep-19 14:00N 45°27' W 083°24'3249.1
2017-Sep-19 14:00N 45°30' W 083°24'1514.7 090 / 171017.710.8 17.1 15.9
2017-Sep-19 13:00N 45°18' W 083°12'1414.1 060 / 161017.7 17.5 16.0
2017-Sep-19 12:00N 45°05' W 083°06'1315.9
2017-Sep-19 12:00N 45°06' W 083°06'915.3 070 / 171017.1 17.7 15.9
2017-Sep-19 11:24N 44°57' W 083°03'4 9.2
2017-Sep-19 11:00N 44°54' W 083°00'1312.7 060 / 181016.4 17.8 16.2
2017-Sep-19 10:00N 44°42' W 082°54'1312.7 070 / 131016.4 17.6 16.2
2017-Sep-19 09:00N 44°30' W 082°48'718.5 040 / 91016.0 17.4 16.3
2017-Sep-19 08:35N 44°23' W 082°47'113.0
2017-Sep-19 08:30N 44°21' W 082°46'1711.3
2017-Sep-19 07:00N 44°06' W 082°36'1312.8 040 / 91016.0 17.5 16.9
2017-Sep-19 06:00N 43°54' W 082°30'1818.0 050 / 101016.4 17.8 17.3
2017-Sep-19 05:00N 43°36' W 082°30'1212.0 040 / 91016.7 18.1 17.3
2017-Sep-19 04:00N 43°24' W 082°30'1312.8 030 / 101016.4 18.4 17.4
2017-Sep-19 03:00N 43°12' W 082°24'1212.0 010 / 111016.7 18.4 17.5
2017-Sep-19 02:00N 43°00' W 082°24'7 7.4 1016.7 18.7 17.4
2017-Sep-19 01:00N 42°54' W 082°30'1212.0 010 / 121016.7 18.5 17.4
2017-Sep-19 00:00N 42°42' W 082°30'7 7.4 030 / 101016.7 18.6 17.5
2017-Sep-18 23:00N 42°36' W 082°36'1514.9 020 / 61016.5 17.5 17.6
2017-Sep-18 22:00N 42°24' W 082°48'1110.7 030 / 171015.9 18.1 19.0
2017-Sep-18 21:00N 42°18' W 083°00'4 4.4 070 / 121016.5 18.1 18.8
2017-Sep-18 20:00N 42°18' W 083°06'4 4.4 030 / 41016.9 20.2 23.8
2017-Sep-18 19:00N 42°18' W 083°12'0 0.0 060 / 41017.2 20.3 24.5
2017-Sep-18 18:00N 42°18' W 083°12'0 0.0 340 / 101017.5 21.3 24.5
2017-Sep-18 17:00N 42°18' W 083°12'0 0.0 010 / 11017.9 23.9 24.5
2017-Sep-18 16:00N 42°18' W 083°12'0 0.0 090 / 21017.9 23.4 24.5
2017-Sep-18 15:00N 42°18' W 083°12'0 0.0 340 / 41017.9 22.4 24.0
2017-Sep-18 14:00N 42°18' W 083°12'0 0.0 330 / 41017.9 21.8 24.5
2017-Sep-18 13:00N 42°18' W 083°12'0 0.0 260 / 31017.5 21.8 24.3
2017-Sep-18 12:00N 42°18' W 083°12'0 0.0 270 / 31017.5 21.6 23.8
2017-Sep-18 11:00N 42°18' W 083°12'0 0.0 290 / 51017.2 21.7 24.0
2017-Sep-18 10:00N 42°18' W 083°12'0 0.0 230 / 31016.9 21.7 24.2
2017-Sep-18 09:00N 42°18' W 083°12'0 0.0 300 / 61016.5 21.6 24.5
2017-Sep-18 08:00N 42°18' W 083°12'0 0.0 320 / 31016.2 22.2 24.5
2017-Sep-18 07:00N 42°18' W 083°12'0 0.0 270 / 61016.5 22.3 23.7
2017-Sep-18 06:00N 42°18' W 083°12'0 0.0 230 / 41017.2 23.1 23.4
2017-Sep-18 05:00N 42°18' W 083°12'4 4.4 180 / 61017.5 22.6 23.4
2017-Sep-18 04:00N 42°18' W 083°06'4 4.4 210 / 61017.5 21.8 19.1
2017-Sep-18 03:00N 42°18' W 083°00'1110.7 180 / 71017.5 21.7 18.8
2017-Sep-18 02:00N 42°24' W 082°48'1110.7 160 / 151017.2 21.6 18.5
2017-Sep-18 01:00N 42°30' W 082°36'1312.8 160 / 61017.5 21.5 17.6
2017-Sep-18 00:00N 42°42' W 082°30'1212.0 160 / 61017.1 23.1 17.6
2017-Sep-17 23:00N 42°54' W 082°30'7 7.4 190 / 101016.7 24.9 17.7
2017-Sep-17 22:00N 43°00' W 082°24'1212.0 190 / 131016.4 26.7 17.4
2017-Sep-17 21:00N 43°12' W 082°24'6 6.0 190 / 101017.1 24.1 17.7
2017-Sep-17 20:00N 43°18' W 082°24'13911.6 160 / 141016.7 23.9 17.7
2017-Sep-17 08:01N 45°31' W 083°20'112.3
2017-Sep-17 07:57N 45°32' W 083°21'512.3
2017-Sep-17 07:30N 45°36' W 083°26'712.3
2017-Sep-17 06:55N 45°41' W 083°33'512.3
2017-Sep-17 06:30N 45°45' W 083°38'1412.2
2017-Sep-17 05:23N 45°55' W 083°51'411.1
2017-Sep-17 04:59N 45°59' W 083°53'710.8
2017-Sep-17 04:21N 46°04' W 084°00'411.0
2017-Sep-17 04:00N 46°08' W 084°01'611.5
2017-Sep-17 03:30N 46°12' W 084°07'10 7.4
2017-Sep-17 02:08N 46°21' W 084°13'2 8.6
2017-Sep-17 01:54N 46°23' W 084°14'66 1.8
2017-Sep-15 14:00N 46°48' W 085°42'1212.3 290 / 131013.5 5.4 18.2 13.9
2017-Sep-15 13:00N 46°48' W 085°24'1212.3 190 / 231012.5 17.6 14.0
2017-Sep-15 12:00N 46°48' W 085°06'1413.7 160 / 171012.5 17.4 14.2
2017-Sep-15 11:00N 46°42' W 084°48'717.7 150 / 161013.2 16.7 14.8
2017-Sep-15 10:37N 46°36' W 084°46'913.9
2017-Sep-15 10:00N 46°30' W 084°36'210.0 140 / 81013.5 15.2 14.7
2017-Sep-15 09:48N 46°28' W 084°34'310.6
2017-Sep-15 09:30N 46°27' W 084°30'5 9.9
2017-Sep-15 09:00N 46°30' W 084°24'3 3.0 110 / 41013.5 15.6 15.0
2017-Sep-15 08:02N 46°30' W 084°20'125.6
2017-Sep-15 08:00N 46°30' W 084°18'1134.6 140 / 31013.7 15.7 15.0
2017-Sep-15 07:59N 46°30' W 084°19'5 7.2
2017-Sep-15 07:16N 46°26' W 084°15'3 9.7
2017-Sep-15 07:00N 46°24' W 084°12'410.5 060 / 51013.3 16.1 15.2
2017-Sep-15 06:36N 46°20' W 084°11'1 8.3
2017-Sep-15 06:28N 46°20' W 084°09'3 6.0
2017-Sep-15 06:00N 46°18' W 084°06'217.6 100 / 21012.7 15.8 15.4
2017-Sep-15 05:51N 46°16' W 084°06'3 7.5
2017-Sep-15 05:30N 46°13' W 084°07'611.4
2017-Sep-15 05:00N 46°09' W 084°02'4346.9
2017-Sep-15 05:00N 46°12' W 084°00'817.3 110 / 51012.7 17.3 16.0
2017-Sep-15 04:30N 46°04' W 083°59'5 9.6
2017-Sep-15 04:00N 46°00' W 083°54'217.1 160 / 21013.0 17.7 15.4
2017-Sep-15 03:54N 45°59' W 083°53'512.6
2017-Sep-15 03:30N 45°54' W 083°51'713.1
2017-Sep-15 03:00N 45°48' W 083°46'2171.7
2017-Sep-15 03:00N 45°48' W 083°48'714.9 160 / 51013.0 18.2 15.5
2017-Sep-15 02:30N 45°43' W 083°40'613.0
2017-Sep-15 02:00N 45°38' W 083°35'2120.3
2017-Sep-15 02:00N 45°36' W 083°36'612.0 210 / 101012.3 18.6 16.3
2017-Sep-15 01:30N 45°32' W 083°30'713.3
2017-Sep-15 01:00N 45°27' W 083°24'3255.0
2017-Sep-15 01:00N 45°30' W 083°24'919.3 140 / 81012.3 5.4 18.7 16.2
2017-Sep-15 00:30N 45°21' W 083°19'713.2
2017-Sep-15 00:00N 45°16' W 083°13'2148.3
2017-Sep-15 00:00N 45°18' W 083°12'   130 / 51012.0 18.6 16.3
Track history (hours):
 
Tides and Currents Weather Stations Pressure Air Temp Water Temp Dewpoint Dewpoint Depression Visibility Wind Speed Wind Dir Waves Ship Positions

Str. Kaye Barker

Owner: THE INTERLAKE STEAMSHIP COMPANY, Middleburg Heights, OH. More information available from US FCC via Universal Licensing System and Coast Guard Vessel Documentation Center.

Last reported at 2017-Sep-25 00:00 UTC. Time now 2017-Sep-25 00:35 UTC.
Position N 45°12' W 087°24'.

Length 223 m; draft 8.3 m.

Type: Cargo ship. MMSI: 366904910.

Wind from 180 at 16 knots

Barometer 1014.3 mb
Air temperature 23.9 ° C
Water temperature 18.7 ° C

Date/timePositionNaut miles runAvg speedWind from/ knotsBaromVisibWave heightAir tempDewpointWater temp
2017-Sep-25 00:00N 45°12' W 087°24'1010.4 180 / 161014.3 23.9 18.7
2017-Sep-24 23:00N 45°18' W 087°12'1414.0 180 / 181014.3 25.5 18.1
2017-Sep-24 22:00N 45°24' W 086°54'1414.0 190 / 191014.3 24.1 17.9
2017-Sep-24 21:00N 45°30' W 086°36'811.1 190 / 171015.0 21.0 17.2
2017-Sep-24 20:15N 45°33' W 086°25'312.5
2017-Sep-24 20:00N 45°35' W 086°21'2215.3
2017-Sep-24 20:00N 45°36' W 086°24'715.4 180 / 111016.0 21.0 17.4
2017-Sep-24 19:30N 45°38' W 086°14'713.1
2017-Sep-24 19:00N 45°42' W 086°06'149.5 200 / 141016.4 21.1 17.3
2017-Sep-24 18:58N 45°41' W 086°05'612.5
2017-Sep-24 18:30N 45°44' W 085°58'612.7
2017-Sep-24 18:00N 45°47' W 085°50'3186.4
2017-Sep-24 18:00N 45°48' W 085°54'917.4 210 / 251017.4 21.6 16.8
2017-Sep-24 17:30N 45°50' W 085°42'612.6
2017-Sep-24 17:00N 45°53' W 085°34'192.2
2017-Sep-24 17:00N 45°54' W 085°36'715.3 210 / 91017.7 23.3 16.8
2017-Sep-24 16:30N 45°53' W 085°25'612.1
2017-Sep-24 16:00N 45°53' W 085°17'2108.7
2017-Sep-24 16:00N 45°54' W 085°18'815.5 190 / 141017.7 21.3 17.1
2017-Sep-24 15:30N 45°52' W 085°08'612.8
2017-Sep-24 15:00N 45°51' W 084°59'3176.6
2017-Sep-24 15:00N 45°48' W 085°00'715.4 200 / 31018.4 22.4 17.1
2017-Sep-24 14:30N 45°50' W 084°50'712.9
2017-Sep-24 14:00N 45°48' W 084°41'1247.3
2017-Sep-24 14:00N 45°48' W 084°42'714.8 180 / 51018.4 22.6 17.0
2017-Sep-24 13:30N 45°45' W 084°33'612.5
2017-Sep-24 13:00N 45°42' W 084°25'153.5
2017-Sep-24 13:00N 45°42' W 084°24'511.1 220 / 71018.4 20.3 16.7
2017-Sep-24 12:30N 45°41' W 084°16'612.2
2017-Sep-24 12:00N 45°39' W 084°08'4294.2
2017-Sep-24 12:00N 45°42' W 084°12'1020.7 180 / 41018.4 21.4 17.1
2017-Sep-24 11:30N 45°37' W 083°60'612.9
2017-Sep-24 11:00N 45°34' W 083°52'3233.5
2017-Sep-24 11:00N 45°36' W 083°54'918.5 180 / 31018.8 21.6 17.3
2017-Sep-24 10:30N 45°31' W 083°44'612.7
2017-Sep-24 10:00N 45°28' W 083°35'2222.8
2017-Sep-24 10:00N 45°30' W 083°36'816.1 230 / 221018.4 21.5 17.0
2017-Sep-24 09:30N 45°25' W 083°27'3 5.0
2017-Sep-24 09:00N 45°24' W 083°24'1514.7 210 / 91018.4 22.9 17.1
2017-Sep-24 08:00N 45°12' W 083°12'1312.7 210 / 91018.4 22.5 17.1
2017-Sep-24 07:00N 45°00' W 083°06'1312.7 240 / 21018.4 22.5 17.4
2017-Sep-24 06:00N 44°48' W 083°00'1312.7 220 / 121018.4 22.3 17.4
2017-Sep-24 05:00N 44°36' W 082°54'1312.7 200 / 131018.1 22.3 17.3
2017-Sep-24 04:00N 44°24' W 082°48'2512.7 190 / 101018.4 22.8 17.8
2017-Sep-24 02:00N 44°00' W 082°36'1312.8 200 / 141018.4 23.6 18.2
2017-Sep-24 01:00N 43°48' W 082°30'1818.0 190 / 81018.4 23.2 18.5
2017-Sep-24 00:00N 43°30' W 082°30'1312.8 170 / 71018.4 24.5 18.9
2017-Sep-23 23:00N 43°18' W 082°24'1212.0 140 / 51018.1 24.1 18.6
2017-Sep-23 22:00N 43°06' W 082°24'1212.0 080 / 111017.7 28.8 18.5
2017-Sep-23 21:00N 42°54' W 082°24'7 7.4 310 / 41018.1 31.7 18.1
2017-Sep-23 20:00N 42°48' W 082°30'1212.0 290 / 41018.8 32.1 18.1
2017-Sep-23 19:00N 42°36' W 082°30'1110.7 210 / 51019.8 29.6 18.2
2017-Sep-23 18:00N 42°30' W 082°42'1110.7 130 / 141019.9 24.3 18.4
2017-Sep-23 17:00N 42°24' W 082°54'1110.7 090 / 71020.3 23.0 19.4
2017-Sep-23 16:00N 42°18' W 083°06'6 6.0 040 / 31019.9 28.2 19.5
2017-Sep-23 15:00N 42°12' W 083°06'1212.0 090 / 11019.9 23.9 19.7
2017-Sep-23 14:00N 42°00' W 083°06'7 7.5 130 / 11019.8 22.0 19.7
2017-Sep-23 13:00N 41°54' W 083°00'4 2.2 030 / 31019.8 22.1 19.8
2017-Sep-23 11:00N 41°54' W 083°06'1110.8 190 / 31018.8 22.3 20.2
2017-Sep-23 10:00N 41°48' W 083°18'1110.8 190 / 71018.1 22.4 20.2
2017-Sep-23 09:00N 41°42' W 083°30'0 0.0 020 / 11017.8 21.5 21.1
2017-Sep-23 08:00N 41°42' W 083°30'0 0.0 260 / 11017.4 21.6 21.1
2017-Sep-23 07:00N 41°42' W 083°30'0 0.0 040 / 21017.8 22.3 21.2
2017-Sep-23 06:00N 41°42' W 083°30'0 0.0 060 / 11017.4 22.4 21.3
2017-Sep-23 05:00N 41°42' W 083°30'0 0.0 030 / 21017.4 22.1 21.1
2017-Sep-23 04:00N 41°42' W 083°30'0 0.0 140 / 31017.4 22.3 21.0
2017-Sep-23 03:00N 41°42' W 083°30'0 0.0 130 / 41017.4 22.5 21.6
2017-Sep-23 02:00N 41°42' W 083°30'0 0.0 120 / 51017.4 23.2 21.6
2017-Sep-23 01:00N 41°42' W 083°30'0 0.0 110 / 51017.4 24.3 21.5
2017-Sep-23 00:00N 41°42' W 083°30'0 0.0 070 / 31017.4 24.2 21.6
2017-Sep-22 23:00N 41°42' W 083°30'0 0.0 060 / 51017.4 25.4 21.3
2017-Sep-22 22:00N 41°42' W 083°30'0 0.0 070 / 51017.4 26.8 21.2
2017-Sep-22 21:00N 41°42' W 083°30'4 4.5 060 / 51017.4 27.4 21.3
2017-Sep-22 20:00N 41°42' W 083°24'7 7.5 080 / 81017.8 24.4 21.2
2017-Sep-22 19:00N 41°48' W 083°18'1110.8 070 / 51018.1 24.2 19.8
2017-Sep-22 18:00N 41°54' W 083°06'1212.0 120 / 171018.5 23.2 19.8
2017-Sep-22 17:00N 42°06' W 083°06'1212.0 200 / 81018.9 24.8 19.5
2017-Sep-22 16:00N 42°18' W 083°06'4 4.4 140 / 31019.2 27.5 22.5
2017-Sep-22 15:00N 42°18' W 083°12'0 0.0 280 / 31019.2 26.8 25.2
2017-Sep-22 14:00N 42°18' W 083°12'0 0.0 160 / 41019.2 24.8 25.4
2017-Sep-22 13:00N 42°18' W 083°12'0 0.0 120 / 21019.2 23.7 25.3
2017-Sep-22 12:00N 42°18' W 083°12'0 0.0 120 / 31018.9 22.2 24.6
2017-Sep-22 11:00N 42°18' W 083°12'0 0.0 120 / 31018.9 21.8 24.4
2017-Sep-22 10:00N 42°18' W 083°12'0 0.0 160 / 11018.9 22.1 23.7
2017-Sep-22 09:00N 42°18' W 083°12'0 0.0 180 / 11018.9 22.5 23.1
2017-Sep-22 08:00N 42°18' W 083°12'4 4.4 110 / 21018.6 22.2 24.3
2017-Sep-22 07:00N 42°18' W 083°06'0 0.0 010 / 21018.9 22.7 21.4
2017-Sep-22 06:00N 42°18' W 083°06'4 4.4 040 / 21018.6 22.3 19.9
2017-Sep-22 05:00N 42°18' W 083°00'7 7.5 140 / 41018.2 23.4 19.2
2017-Sep-22 04:00N 42°24' W 082°54'1110.7 170 / 101017.9 22.2 18.9
2017-Sep-22 03:00N 42°30' W 082°42'1110.7 120 / 121018.2 22.5 17.9
2017-Sep-22 02:00N 42°36' W 082°30'1212.0 120 / 31018.4 22.2 18.0
2017-Sep-22 01:00N 42°48' W 082°30'7 7.4 150 / 61018.1 23.7 17.9
2017-Sep-22 00:00N 42°54' W 082°24'1212.0 150 / 101017.7 25.6 17.9
2017-Sep-21 23:00N 43°06' W 082°24'1212.0 160 / 141016.7 27.0 17.7
2017-Sep-21 22:00N 43°18' W 082°24'1212.0 140 / 141016.4 25.5 17.7
2017-Sep-21 21:00N 43°30' W 082°24'1212.0 130 / 171016.0 25.0 17.8
2017-Sep-21 20:00N 43°42' W 082°24'1212.0 140 / 181016.4 23.3 17.8
2017-Sep-21 19:00N 43°54' W 082°24'1312.8 140 / 191016.4 22.5 17.7
2017-Sep-21 18:00N 44°06' W 082°30'1312.7 150 / 141016.7 21.3 17.3
2017-Sep-21 17:00N 44°18' W 082°36'5711.3 160 / 151017.1 20.6 16.9
2017-Sep-21 12:00N 45°12' W 083°00'1514.7 160 / 161015.7 19.8 16.9
2017-Sep-21 11:00N 45°24' W 083°12'1113.0 160 / 141015.4 19.8 16.3
2017-Sep-21 10:11N 45°32' W 083°21'212.2
2017-Sep-21 10:00N 45°34' W 083°23'612.3
2017-Sep-21 09:30N 45°38' W 083°29'612.3
2017-Sep-21 09:00N 45°43' W 083°35'2110.7
2017-Sep-21 07:00N 46°00' W 083°54'1112.2 140 / 81015.0 19.8 16.4
2017-Sep-21 06:05N 46°09' W 084°03'339.5
2017-Sep-21 06:00N 46°12' W 084°06'275.7 200 / 41016.7 19.5 16.1
2017-Sep-21 05:58N 46°10' W 084°05'9 9.7
2017-Sep-21 05:00N 46°18' W 084°12'6 6.0 160 / 101014.0 19.7 15.5
2017-Sep-21 04:00N 46°24' W 084°12'7 7.3 110 / 91014.0 19.0 15.2
2017-Sep-21 03:00N 46°30' W 084°18'4 4.1 100 / 101014.0 19.2 15.3
2017-Sep-21 02:00N 46°30' W 084°24'0 0.0 100 / 71013.9 19.2 15.2
2017-Sep-21 01:00N 46°30' W 084°24'8 8.3 100 / 91013.9 19.4 15.2
2017-Sep-21 00:00N 46°30' W 084°36'1010.2 120 / 181012.2 19.7 14.9
2017-Sep-20 23:00N 46°36' W 084°48'1312.7 140 / 211011.2 20.2 15.0
2017-Sep-20 22:00N 46°48' W 084°54'1413.7 140 / 241010.5 20.0 14.2
2017-Sep-20 21:00N 46°54' W 085°12'1413.7 130 / 251009.8 20.0 14.3
2017-Sep-20 20:00N 46°48' W 085°30'1212.3 140 / 221009.8 21.1 14.6
2017-Sep-20 19:00N 46°48' W 085°48'1212.3 150 / 161010.2 20.5 14.8
2017-Sep-20 18:00N 46°48' W 086°06'1413.7 130 / 171009.8 20.1 13.9
2017-Sep-20 17:00N 46°42' W 086°24'1212.3 150 / 261009.5 18.8 14.3
2017-Sep-20 16:00N 46°42' W 086°42'1010.2 160 / 251011.2 18.2 14.6
2017-Sep-20 15:00N 46°36' W 086°54'1212.4 160 / 211011.510.8 17.3 13.9
2017-Sep-20 14:00N 46°36' W 087°12'815.8 160 / 171011.5 17.7 13.8
2017-Sep-20 13:31N 46°34' W 087°23'0 1.6
2017-Sep-20 13:30N 46°34' W 087°23'2 4.0
2017-Sep-20 13:00N 46°36' W 087°24'0 0.0 120 / 21012.5 18.1 14.6
2017-Sep-20 12:00N 46°36' W 087°24'0 0.0 040 / 31010.8 17.5 14.5
2017-Sep-20 11:00N 46°36' W 087°24'0 0.0 250 / 21011.9 17.2 14.6
2017-Sep-20 10:00N 46°36' W 087°24'0 0.0 150 / 31010.8 16.6 14.4
2017-Sep-20 09:00N 46°36' W 087°24'810.2 200 / 31011.5 16.2 14.3
2017-Sep-20 08:14N 46°35' W 087°13'1 3.2
2017-Sep-20 08:00N 46°36' W 087°12'31810.8 160 / 171011.9 15.9 13.9
2017-Sep-20 07:59N 46°36' W 087°08'10 9.9
2017-Sep-20 07:00N 46°36' W 086°54'1413.7 150 / 161012.5 15.9 14.0
2017-Sep-20 06:00N 46°42' W 086°36'1616.5 150 / 161012.9 15.9 14.3
2017-Sep-20 05:00N 46°42' W 086°12'412.4 150 / 211012.9 16.2 14.3
2017-Sep-20 04:41N 46°44' W 086°08'213.0
2017-Sep-20 04:30N 46°45' W 086°04'815.1
2017-Sep-20 04:00N 46°48' W 085°54'313.9 140 / 151014.2 15.9 14.3
2017-Sep-20 03:44N 46°46' W 085°50'1013.0
2017-Sep-20 03:00N 46°48' W 085°36'1212.3 150 / 131014.6 16.5 14.1
2017-Sep-20 02:00N 46°48' W 085°18'1212.3 120 / 201014.9 17.4 14.4
2017-Sep-20 01:00N 46°48' W 085°00'1514.6 160 / 101015.2 18.6 14.5
2017-Sep-20 00:00N 46°36' W 084°48'1010.2 150 / 91014.910.8 18.9 15.0
2017-Sep-19 23:00N 46°30' W 084°36'8 8.3 160 / 111014.9 19.7 15.1
2017-Sep-19 22:00N 46°30' W 084°24'4 4.1 140 / 71015.2 21.6 15.2
2017-Sep-19 21:00N 46°30' W 084°18'7 7.3 130 / 71015.7 21.9 15.3
2017-Sep-19 20:00N 46°24' W 084°12'7 7.3 150 / 121016.4 21.4 15.4
2017-Sep-19 19:00N 46°18' W 084°06'315.1 100 / 101016.7 21.1 15.4
2017-Sep-19 18:48N 46°15' W 084°06'3 8.7
2017-Sep-19 18:26N 46°12' W 084°07'817.2
2017-Sep-19 18:00N 46°06' W 084°00'4 6.4 100 / 91017.4 18.9 16.3
2017-Sep-19 17:25N 46°03' W 083°57'4 8.5
2017-Sep-19 17:00N 46°00' W 083°54'127.9 050 / 141017.4 18.9 16.1
2017-Sep-19 16:57N 45°59' W 083°53'612.4
2017-Sep-19 16:29N 45°53' W 083°51'611.5
2017-Sep-19 16:00N 45°48' W 083°48'270.2 070 / 101017.7 17.4 16.3
2017-Sep-19 15:58N 45°48' W 083°45'612.9
2017-Sep-19 15:30N 45°43' W 083°40'612.8
2017-Sep-19 15:00N 45°38' W 083°35'2119.3
2017-Sep-19 15:00N 45°36' W 083°36'611.8 080 / 141017.7 17.5 16.0
2017-Sep-19 14:30N 45°32' W 083°30'713.1
2017-Sep-19 14:00N 45°27' W 083°24'3249.1
2017-Sep-19 14:00N 45°30' W 083°24'1514.7 090 / 171017.710.8 17.1 15.9
2017-Sep-19 13:00N 45°18' W 083°12'1414.1 060 / 161017.7 17.5 16.0
2017-Sep-19 12:00N 45°05' W 083°06'1315.9
2017-Sep-19 12:00N 45°06' W 083°06'915.3 070 / 171017.1 17.7 15.9
2017-Sep-19 11:24N 44°57' W 083°03'4 9.2
2017-Sep-19 11:00N 44°54' W 083°00'1312.7 060 / 181016.4 17.8 16.2
2017-Sep-19 10:00N 44°42' W 082°54'1312.7 070 / 131016.4 17.6 16.2
2017-Sep-19 09:00N 44°30' W 082°48'718.5 040 / 91016.0 17.4 16.3
2017-Sep-19 08:35N 44°23' W 082°47'113.0
2017-Sep-19 08:30N 44°21' W 082°46'1711.3
2017-Sep-19 07:00N 44°06' W 082°36'1312.8 040 / 91016.0 17.5 16.9
2017-Sep-19 06:00N 43°54' W 082°30'1818.0 050 / 101016.4 17.8 17.3
2017-Sep-19 05:00N 43°36' W 082°30'1212.0 040 / 91016.7 18.1 17.3
2017-Sep-19 04:00N 43°24' W 082°30'1312.8 030 / 101016.4 18.4 17.4
2017-Sep-19 03:00N 43°12' W 082°24'1212.0 010 / 111016.7 18.4 17.5
2017-Sep-19 02:00N 43°00' W 082°24'7 7.4 1016.7 18.7 17.4
2017-Sep-19 01:00N 42°54' W 082°30'1212.0 010 / 121016.7 18.5 17.4
2017-Sep-19 00:00N 42°42' W 082°30'7 7.4 030 / 101016.7 18.6 17.5
2017-Sep-18 23:00N 42°36' W 082°36'1514.9 020 / 61016.5 17.5 17.6
2017-Sep-18 22:00N 42°24' W 082°48'1110.7 030 / 171015.9 18.1 19.0
2017-Sep-18 21:00N 42°18' W 083°00'4 4.4 070 / 121016.5 18.1 18.8
2017-Sep-18 20:00N 42°18' W 083°06'4 4.4 030 / 41016.9 20.2 23.8
2017-Sep-18 19:00N 42°18' W 083°12'0 0.0 060 / 41017.2 20.3 24.5
2017-Sep-18 18:00N 42°18' W 083°12'0 0.0 340 / 101017.5 21.3 24.5
2017-Sep-18 17:00N 42°18' W 083°12'0 0.0 010 / 11017.9 23.9 24.5
2017-Sep-18 16:00N 42°18' W 083°12'0 0.0 090 / 21017.9 23.4 24.5
2017-Sep-18 15:00N 42°18' W 083°12'0 0.0 340 / 41017.9 22.4 24.0
2017-Sep-18 14:00N 42°18' W 083°12'0 0.0 330 / 41017.9 21.8 24.5
2017-Sep-18 13:00N 42°18' W 083°12'0 0.0 260 / 31017.5 21.8 24.3
2017-Sep-18 12:00N 42°18' W 083°12'0 0.0 270 / 31017.5 21.6 23.8
2017-Sep-18 11:00N 42°18' W 083°12'0 0.0 290 / 51017.2 21.7 24.0
2017-Sep-18 10:00N 42°18' W 083°12'0 0.0 230 / 31016.9 21.7 24.2
2017-Sep-18 09:00N 42°18' W 083°12'0 0.0 300 / 61016.5 21.6 24.5
2017-Sep-18 08:00N 42°18' W 083°12'0 0.0 320 / 31016.2 22.2 24.5
2017-Sep-18 07:00N 42°18' W 083°12'0 0.0 270 / 61016.5 22.3 23.7
2017-Sep-18 06:00N 42°18' W 083°12'0 0.0 230 / 41017.2 23.1 23.4
2017-Sep-18 05:00N 42°18' W 083°12'4 4.4 180 / 61017.5 22.6 23.4
2017-Sep-18 04:00N 42°18' W 083°06'4 4.4 210 / 61017.5 21.8 19.1
2017-Sep-18 03:00N 42°18' W 083°00'1110.7 180 / 71017.5 21.7 18.8
2017-Sep-18 02:00N 42°24' W 082°48'1110.7 160 / 151017.2 21.6 18.5
2017-Sep-18 01:00N 42°30' W 082°36'1312.8 160 / 61017.5 21.5 17.6
2017-Sep-18 00:00N 42°42' W 082°30'1212.0 160 / 61017.1 23.1 17.6
2017-Sep-17 23:00N 42°54' W 082°30'7 7.4 190 / 101016.7 24.9 17.7
2017-Sep-17 22:00N 43°00' W 082°24'1212.0 190 / 131016.4 26.7 17.4
2017-Sep-17 21:00N 43°12' W 082°24'6 6.0 190 / 101017.1 24.1 17.7
2017-Sep-17 20:00N 43°18' W 082°24'13911.6 160 / 141016.7 23.9 17.7
2017-Sep-17 08:01N 45°31' W 083°20'112.3
2017-Sep-17 07:57N 45°32' W 083°21'512.3
2017-Sep-17 07:30N 45°36' W 083°26'712.3
2017-Sep-17 06:55N 45°41' W 083°33'512.3
2017-Sep-17 06:30N 45°45' W 083°38'1412.2
2017-Sep-17 05:23N 45°55' W 083°51'411.1
2017-Sep-17 04:59N 45°59' W 083°53'710.8
2017-Sep-17 04:21N 46°04' W 084°00'411.0
2017-Sep-17 04:00N 46°08' W 084°01'611.5
2017-Sep-17 03:30N 46°12' W 084°07'10 7.4
2017-Sep-17 02:08N 46°21' W 084°13'2 8.6
2017-Sep-17 01:54N 46°23' W 084°14'66 1.8
2017-Sep-15 14:00N 46°48' W 085°42'1212.3 290 / 131013.5 5.4 18.2 13.9
2017-Sep-15 13:00N 46°48' W 085°24'1212.3 190 / 231012.5 17.6 14.0
2017-Sep-15 12:00N 46°48' W 085°06'1413.7 160 / 171012.5 17.4 14.2
2017-Sep-15 11:00N 46°42' W 084°48'717.7 150 / 161013.2 16.7 14.8
2017-Sep-15 10:37N 46°36' W 084°46'913.9
2017-Sep-15 10:00N 46°30' W 084°36'210.0 140 / 81013.5 15.2 14.7
2017-Sep-15 09:48N 46°28' W 084°34'310.6
2017-Sep-15 09:30N 46°27' W 084°30'5 9.9
2017-Sep-15 09:00N 46°30' W 084°24'3 3.0 110 / 41013.5 15.6 15.0
2017-Sep-15 08:02N 46°30' W 084°20'125.6
2017-Sep-15 08:00N 46°30' W 084°18'1134.6 140 / 31013.7 15.7 15.0
2017-Sep-15 07:59N 46°30' W 084°19'5 7.2
2017-Sep-15 07:16N 46°26' W 084°15'3 9.7
2017-Sep-15 07:00N 46°24' W 084°12'410.5 060 / 51013.3 16.1 15.2
2017-Sep-15 06:36N 46°20' W 084°11'1 8.3
2017-Sep-15 06:28N 46°20' W 084°09'3 6.0
2017-Sep-15 06:00N 46°18' W 084°06'217.6 100 / 21012.7 15.8 15.4
2017-Sep-15 05:51N 46°16' W 084°06'3 7.5
2017-Sep-15 05:30N 46°13' W 084°07'611.4
2017-Sep-15 05:00N 46°09' W 084°02'4346.9
2017-Sep-15 05:00N 46°12' W 084°00'817.3 110 / 51012.7 17.3 16.0
2017-Sep-15 04:30N 46°04' W 083°59'5 9.6
2017-Sep-15 04:00N 46°00' W 083°54'217.1 160 / 21013.0 17.7 15.4
2017-Sep-15 03:54N 45°59' W 083°53'512.6
2017-Sep-15 03:30N 45°54' W 083°51'713.1
2017-Sep-15 03:00N 45°48' W 083°46'2171.7
2017-Sep-15 03:00N 45°48' W 083°48'714.9 160 / 51013.0 18.2 15.5
2017-Sep-15 02:30N 45°43' W 083°40'613.0
2017-Sep-15 02:00N 45°38' W 083°35'2120.3
2017-Sep-15 02:00N 45°36' W 083°36'612.0 210 / 101012.3 18.6 16.3
2017-Sep-15 01:30N 45°32' W 083°30'713.3
2017-Sep-15 01:00N 45°27' W 083°24'3255.0
2017-Sep-15 01:00N 45°30' W 083°24'919.3 140 / 81012.3 5.4 18.7 16.2
2017-Sep-15 00:30N 45°21' W 083°19'713.2
2017-Sep-15 00:00N 45°16' W 083°13'2148.3
2017-Sep-15 00:00N 45°18' W 083°12'   130 / 51012.0 18.6 16.3

Dump ship's entire track history